createdAt,value
2019-05-15T00:00:40.238Z,59.75
2019-05-15T00:02:44.208Z,60.09
2019-05-15T00:04:49.182Z,60.00
2019-05-15T00:06:53.285Z,59.87
2019-05-15T00:08:58.808Z,59.99
2019-05-15T00:11:03.149Z,60.19
2019-05-15T00:13:09.278Z,60.46
2019-05-15T00:15:12.979Z,60.60
2019-05-15T00:17:19.125Z,60.66
2019-05-15T00:19:22.800Z,60.67
2019-05-15T00:21:28.654Z,60.73
2019-05-15T00:23:32.191Z,60.70
2019-05-15T00:25:36.194Z,60.81
2019-05-15T00:27:40.407Z,60.72
2019-05-15T00:29:44.654Z,60.75
2019-05-15T00:31:48.734Z,60.70
2019-05-15T00:33:52.885Z,60.72
2019-05-15T00:36:00.565Z,60.92
2019-05-15T00:38:04.735Z,60.84
2019-05-15T00:40:09.174Z,60.94
2019-05-15T00:42:13.419Z,60.94
2019-05-15T00:44:18.669Z,61.25
2019-05-15T00:46:23.258Z,61.09
2019-05-15T00:48:29.281Z,61.26
2019-05-15T00:50:33.239Z,61.58
2019-05-15T00:52:39.169Z,61.57
2019-05-15T00:54:43.870Z,61.57
2019-05-15T00:56:48.532Z,61.80
2019-05-15T00:58:53.721Z,61.93
2019-05-15T01:00:59.195Z,62.06
2019-05-15T01:03:04.620Z,62.12
2019-05-15T01:05:09.472Z,62.28
2019-05-15T01:07:14.709Z,62.61
2019-05-15T01:09:18.843Z,62.71
2019-05-15T01:11:23.441Z,62.96
2019-05-15T01:13:28.178Z,62.93
2019-05-15T01:15:32.729Z,62.94
2019-05-15T01:17:39.078Z,63.10
2019-05-15T01:19:43.081Z,63.12
2019-05-15T01:21:48.132Z,62.93
2019-05-15T01:23:52.518Z,62.66
2019-05-15T01:25:58.863Z,62.75
2019-05-15T01:28:03.040Z,62.67
2019-05-15T01:30:08.921Z,62.46
2019-05-15T01:32:13.541Z,62.41
2019-05-15T01:34:18.665Z,62.27
2019-05-15T01:36:22.579Z,62.23
2019-05-15T01:38:28.055Z,62.03
2019-05-15T01:40:32.508Z,61.92
2019-05-15T01:42:38.685Z,61.86
2019-05-15T01:44:51.957Z,61.97
2019-05-15T01:46:58.886Z,62.03
2019-05-15T01:49:03.393Z,62.14
2019-05-15T01:51:09.333Z,62.17
2019-05-15T01:53:14.496Z,62.12
2019-05-15T01:55:28.463Z,62.21
2019-05-15T01:57:32.535Z,62.43
2019-05-15T01:59:38.867Z,62.80
2019-05-15T02:01:44.141Z,62.81
2019-05-15T02:03:49.256Z,63.10
2019-05-15T02:05:58.617Z,63.53
2019-05-15T02:08:03.199Z,63.44
2019-05-15T02:10:09.109Z,63.45
2019-05-15T02:12:13.624Z,63.48
2019-05-15T02:14:18.969Z,63.42
2019-05-15T02:16:24.181Z,63.36
2019-05-15T02:18:28.678Z,63.47
2019-05-15T02:20:32.708Z,63.51
2019-05-15T02:22:41.936Z,63.53
2019-05-15T02:24:43.222Z,63.42
2019-05-15T02:26:48.255Z,63.41
2019-05-15T02:28:52.530Z,63.57
2019-05-15T02:30:58.783Z,63.51
2019-05-15T02:33:02.441Z,63.82
2019-05-15T02:35:09.962Z,64.53
2019-05-15T02:37:12.843Z,64.50
2019-05-15T02:39:18.977Z,64.85
2019-05-15T02:41:24.174Z,64.77
2019-05-15T02:43:29.889Z,64.79
2019-05-15T02:45:41.765Z,64.76
2019-05-15T02:47:42.700Z,64.56
2019-05-15T02:49:48.734Z,64.82
2019-05-15T02:51:52.957Z,64.70
2019-05-15T02:53:58.594Z,64.79
2019-05-15T02:56:02.956Z,64.50
2019-05-15T02:58:10.029Z,64.57
2019-05-15T03:00:32.682Z,64.68
2019-05-15T03:02:20.599Z,64.70
2019-05-15T03:04:25.005Z,64.44
2019-05-15T03:06:30.016Z,64.36
2019-05-15T03:08:39.880Z,64.29
2019-05-15T03:10:43.747Z,64.20
2019-05-15T03:12:49.503Z,63.81
2019-05-15T03:15:09.192Z,63.65
2019-05-15T03:17:12.509Z,63.70
2019-05-15T03:19:19.290Z,63.44
2019-05-15T03:21:23.916Z,63.27
2019-05-15T03:23:29.440Z,63.14
2019-05-15T03:25:33.975Z,63.17
2019-05-15T03:27:39.636Z,63.25
2019-05-15T03:29:44.106Z,63.29
2019-05-15T03:32:07.511Z,63.31
2019-05-15T03:33:55.351Z,63.25
2019-05-15T03:36:02.741Z,63.30
2019-05-15T03:38:09.233Z,63.26
2019-05-15T03:40:12.494Z,63.26
2019-05-15T03:42:19.096Z,63.26
2019-05-15T03:44:23.394Z,63.15
2019-05-15T03:46:31.033Z,63.19
2019-05-15T03:48:35.669Z,63.28
2019-05-15T03:50:42.308Z,63.28
2019-05-15T03:52:49.647Z,63.28
2019-05-15T03:54:54.422Z,63.25
2019-05-15T03:57:04.017Z,63.36
2019-05-15T03:59:09.525Z,63.50
2019-05-15T04:01:28.358Z,63.48
2019-05-15T04:03:20.647Z,63.45
2019-05-15T04:05:25.030Z,63.53
2019-05-15T04:07:29.556Z,63.46
2019-05-15T04:09:33.804Z,63.50
2019-05-15T04:11:38.848Z,63.47
2019-05-15T04:13:43.189Z,63.48
2019-05-15T04:15:50.107Z,63.52
2019-05-15T04:17:54.863Z,63.51
2019-05-15T04:19:59.158Z,63.56
2019-05-15T04:22:03.265Z,63.52
2019-05-15T04:24:09.412Z,63.55
2019-05-15T04:26:14.272Z,63.63
2019-05-15T04:28:21.094Z,63.62
2019-05-15T04:30:25.598Z,63.60
2019-05-15T04:32:29.593Z,63.59
2019-05-15T04:34:33.679Z,63.55
2019-05-15T04:36:39.113Z,63.57
2019-05-15T04:38:43.455Z,63.43
2019-05-15T04:40:50.075Z,63.35
2019-05-15T04:42:55.158Z,63.20
2019-05-15T04:44:59.736Z,62.96
2019-05-15T04:47:10.010Z,62.74
2019-05-15T04:49:14.883Z,62.43
2019-05-15T04:51:20.809Z,62.26
2019-05-15T04:53:25.336Z,62.04
2019-05-15T04:55:29.546Z,61.96
2019-05-15T04:57:46.329Z,61.80
2019-05-15T05:00:09.609Z,61.58
2019-05-15T05:02:27.194Z,61.33
2019-05-15T05:04:38.958Z,61.11
2019-05-15T05:07:05.418Z,60.96
2019-05-15T05:09:09.271Z,60.64
2019-05-15T05:11:13.337Z,60.62
2019-05-15T05:13:20.665Z,60.53
2019-05-15T05:15:24.841Z,60.48
2019-05-15T05:17:29.057Z,60.33
2019-05-15T05:19:33.699Z,60.00
2019-05-15T05:21:39.064Z,59.80
2019-05-15T05:24:08.026Z,59.49
2019-05-15T05:26:19.580Z,59.21
2019-05-15T05:28:29.073Z,58.82
2019-05-15T05:30:38.552Z,58.67
2019-05-15T05:35:08.776Z,58.33
2019-05-15T05:37:13.213Z,58.33
2019-05-15T05:39:20.004Z,57.89
2019-05-15T05:41:58.762Z,57.51
2019-05-15T05:44:03.346Z,57.36
2019-05-15T05:46:09.264Z,56.43
2019-05-15T05:48:14.715Z,56.31
2019-05-15T05:50:38.488Z,56.37
2019-05-15T05:52:44.636Z,56.18
2019-05-15T05:54:49.381Z,56.08
2019-05-15T05:56:58.476Z,55.64
2019-05-15T05:59:03.464Z,55.81
2019-05-15T06:01:18.577Z,55.70
2019-05-15T06:03:28.122Z,55.34
2019-05-15T06:05:33.306Z,55.01
2019-05-15T06:07:40.823Z,54.92
2019-05-15T06:09:48.995Z,54.45
2019-05-15T06:11:58.309Z,54.08
2019-05-15T06:14:03.901Z,54.21
2019-05-15T06:16:11.414Z,53.42
2019-05-15T06:18:21.550Z,53.11
2019-05-15T06:20:28.143Z,52.92
2019-05-15T06:22:31.830Z,52.68
2019-05-15T06:24:37.947Z,52.40
2019-05-15T06:26:42.443Z,52.36
2019-05-15T06:28:58.689Z,52.13
2019-05-15T06:31:08.560Z,51.98
2019-05-15T06:33:13.535Z,51.74
2019-05-15T06:35:22.864Z,51.62
2019-05-15T06:37:34.650Z,51.57
2019-05-15T06:39:41.442Z,51.61
2019-05-15T06:41:48.923Z,51.69
2019-05-15T06:43:55.129Z,51.63
2019-05-15T06:46:01.950Z,51.00
2019-05-15T06:48:09.594Z,51.00
2019-05-15T06:50:23.617Z,50.82
2019-05-15T06:52:28.441Z,50.66
2019-05-15T06:54:34.776Z,50.34
2019-05-15T06:56:49.225Z,50.56
2019-05-15T06:58:58.438Z,50.36
2019-05-15T07:01:03.899Z,50.30
2019-05-15T07:03:21.500Z,50.36
2019-05-15T07:05:18.242Z,49.97
2019-05-15T07:07:21.869Z,50.14
2019-05-15T07:09:28.509Z,50.09
2019-05-15T07:11:33.824Z,49.96
2019-05-15T07:13:38.643Z,49.70
2019-05-15T07:15:42.858Z,49.50
2019-05-15T07:17:51.228Z,49.26
2019-05-15T07:19:55.447Z,49.23
2019-05-15T07:21:59.624Z,49.35
2019-05-15T07:24:03.839Z,49.31
2019-05-15T07:26:12.042Z,49.19
2019-05-15T07:28:18.797Z,48.77
2019-05-15T07:30:23.430Z,48.60
2019-05-15T07:32:28.672Z,48.63
2019-05-15T07:34:33.081Z,48.50
2019-05-15T07:36:39.004Z,48.30
2019-05-15T07:38:43.604Z,48.10
2019-05-15T07:40:59.621Z,48.08
2019-05-15T07:42:59.032Z,47.63
2019-05-15T07:45:08.281Z,47.08
2019-05-15T07:47:15.128Z,46.39
2019-05-15T07:49:28.907Z,45.62
2019-05-15T07:51:38.206Z,45.51
2019-05-15T07:53:43.919Z,44.63
2019-05-15T07:55:49.937Z,43.48
2019-05-15T07:57:59.105Z,43.08
2019-05-15T08:00:05.241Z,43.06
2019-05-15T08:02:10.838Z,42.88
2019-05-15T08:04:26.126Z,42.72
2019-05-15T08:06:28.964Z,42.16
2019-05-15T08:08:39.269Z,41.36
2019-05-15T08:10:49.679Z,41.22
2019-05-15T08:12:54.279Z,41.06
2019-05-15T08:15:01.779Z,40.78
2019-05-15T08:17:08.695Z,40.59
2019-05-15T08:19:18.348Z,40.39
2019-05-15T08:21:31.227Z,40.64
2019-05-15T08:23:35.702Z,40.87
2019-05-15T08:25:40.413Z,40.80
2019-05-15T08:27:48.428Z,41.16
2019-05-15T08:29:58.004Z,40.93
2019-05-15T08:32:02.244Z,40.92
2019-05-15T08:34:15.275Z,40.73
2019-05-15T08:36:13.952Z,40.36
2019-05-15T08:38:18.629Z,40.17
2019-05-15T08:40:24.119Z,40.49
2019-05-15T08:42:35.058Z,40.03
2019-05-15T08:44:42.959Z,39.91
2019-05-15T08:46:48.076Z,39.49
2019-05-15T08:48:53.705Z,39.55
2019-05-15T08:51:00.234Z,39.85
2019-05-15T08:53:09.591Z,40.49
2019-05-15T08:55:14.938Z,41.01
2019-05-15T08:57:20.594Z,40.92
2019-05-15T08:59:31.320Z,40.59
2019-05-15T09:01:38.121Z,39.58
2019-05-15T09:03:49.937Z,39.01
2019-05-15T09:05:58.791Z,39.09
2019-05-15T09:08:03.040Z,39.17
2019-05-15T09:10:13.721Z,39.05
2019-05-15T09:12:22.874Z,39.01
2019-05-15T09:14:28.570Z,38.76
2019-05-15T09:16:32.914Z,38.70
2019-05-15T09:18:39.182Z,38.95
2019-05-15T09:20:43.413Z,38.73
2019-05-15T09:22:48.973Z,39.03
2019-05-15T09:24:59.831Z,39.39
2019-05-15T09:27:09.803Z,39.26
2019-05-15T09:29:18.116Z,39.16
2019-05-15T09:31:21.972Z,38.45
2019-05-15T09:33:28.615Z,38.22
2019-05-15T09:35:32.541Z,37.54
2019-05-15T09:46:35.291Z,37.01
2019-05-15T09:55:08.596Z,36.18
2019-05-15T09:57:13.353Z,35.98
2019-05-15T09:59:18.654Z,36.01
2019-05-15T10:01:28.494Z,35.78
2019-05-15T10:03:33.069Z,35.50
2019-05-15T10:05:38.836Z,35.70
2019-05-15T10:07:46.420Z,35.75
2019-05-15T10:09:52.468Z,34.01
2019-05-15T10:11:56.456Z,34.42
2019-05-15T10:14:06.652Z,33.67
2019-05-15T10:16:14.433Z,33.71
2019-05-15T10:18:19.266Z,33.93
2019-05-15T10:20:25.323Z,34.35
2019-05-15T10:22:32.102Z,34.47
2019-05-15T10:24:42.125Z,34.58
2019-05-15T10:26:49.757Z,34.10
2019-05-15T10:28:54.553Z,33.81
2019-05-15T10:31:00.196Z,34.30
2019-05-15T10:33:08.626Z,33.64
2019-05-15T10:35:24.583Z,33.51
2019-05-15T10:37:23.453Z,33.56
2019-05-15T10:39:33.379Z,34.09
2019-05-15T10:41:38.787Z,32.71
2019-05-15T10:43:46.062Z,32.13
2019-05-15T10:45:50.239Z,32.24
2019-05-15T10:47:58.570Z,31.51
2019-05-15T10:50:03.185Z,31.18
2019-05-15T10:52:11.913Z,30.97
2019-05-15T10:54:25.562Z,31.11
2019-05-15T10:56:30.013Z,30.84
2019-05-15T10:58:39.491Z,29.49
2019-05-15T11:00:43.988Z,29.35
2019-05-15T11:02:51.989Z,28.95
2019-05-15T11:04:57.945Z,28.26
2019-05-15T11:07:04.840Z,28.45
2019-05-15T11:09:09.341Z,28.34
2019-05-15T11:11:23.534Z,28.72
2019-05-15T11:13:34.678Z,28.43
2019-05-15T11:15:42.526Z,29.04
2019-05-15T11:17:51.491Z,29.06
2019-05-15T11:19:58.630Z,29.52
2019-05-15T11:22:05.424Z,30.01
2019-05-15T11:24:09.802Z,29.99
2019-05-15T11:26:14.200Z,30.26
2019-05-15T11:28:21.084Z,29.82
2019-05-15T11:30:28.911Z,29.09
2019-05-15T11:32:38.815Z,29.97
2019-05-15T11:34:53.142Z,30.18
2019-05-15T11:36:59.538Z,30.88
2019-05-15T11:39:08.383Z,31.06
2019-05-15T11:41:12.471Z,31.45
2019-05-15T11:43:19.384Z,31.53
2019-05-15T11:45:23.134Z,31.71
2019-05-15T11:47:28.039Z,31.99
2019-05-15T11:49:38.432Z,31.66
2019-05-15T11:51:49.805Z,32.07
2019-05-15T11:53:54.172Z,31.16
2019-05-15T11:56:01.956Z,30.98
2019-05-15T11:58:09.068Z,30.84
2019-05-15T12:00:20.278Z,30.20
2019-05-15T12:02:20.878Z,30.29
2019-05-15T12:04:33.813Z,30.69
2019-05-15T12:06:38.406Z,30.41
2019-05-15T12:08:41.777Z,28.28
2019-05-15T12:10:46.011Z,27.69
2019-05-15T12:12:52.935Z,27.50
2019-05-15T12:14:57.647Z,27.44
2019-05-15T12:17:11.376Z,27.11
2019-05-15T12:19:18.699Z,27.40
2019-05-15T12:21:23.316Z,27.74
2019-05-15T12:23:29.163Z,27.97
2019-05-15T12:25:35.317Z,28.19
2019-05-15T12:27:40.513Z,27.84
2019-05-15T12:29:49.158Z,27.43
2019-05-15T12:31:55.488Z,27.49
2019-05-15T12:33:59.820Z,27.64
2019-05-15T12:36:04.808Z,27.33
2019-05-15T12:38:10.287Z,27.77
2019-05-15T13:01:29.401Z,27.67
2019-05-15T13:03:32.971Z,28.01
2019-05-15T13:05:39.187Z,28.11
2019-05-15T13:07:45.294Z,27.94
2019-05-15T13:09:52.446Z,28.22
2019-05-15T13:11:59.746Z,28.11
2019-05-15T13:14:07.990Z,28.38
2019-05-15T13:16:14.370Z,29.01
2019-05-15T13:18:18.741Z,29.51
2019-05-15T13:20:28.803Z,29.74
2019-05-15T13:22:33.358Z,29.75
2019-05-15T13:24:38.715Z,29.90
2019-05-15T13:26:44.788Z,29.89
2019-05-15T13:28:49.083Z,30.17
2019-05-15T13:30:59.573Z,30.00
2019-05-15T13:33:10.460Z,29.91
2019-05-15T13:35:15.006Z,29.57
2019-05-15T13:37:26.650Z,29.50
2019-05-15T13:39:28.319Z,29.46
2019-05-15T13:41:31.892Z,29.67
2019-05-15T13:43:35.866Z,29.61
2019-05-15T13:45:40.112Z,29.58
2019-05-15T13:47:44.583Z,29.63
2019-05-15T13:49:53.096Z,29.60
2019-05-15T13:51:59.354Z,29.77
2019-05-15T13:54:05.120Z,29.82
2019-05-15T13:56:09.973Z,30.04
2019-05-15T13:58:14.242Z,29.55
2019-05-15T14:00:21.946Z,29.59
2019-05-15T14:02:28.090Z,29.69
2019-05-15T14:04:32.025Z,30.19
2019-05-15T14:06:37.972Z,30.51
2019-05-15T14:08:45.118Z,30.72
2019-05-15T14:10:49.516Z,31.04
2019-05-15T14:12:53.725Z,31.30
2019-05-15T14:14:58.300Z,31.13
2019-05-15T14:17:02.832Z,31.02
2019-05-15T14:19:08.326Z,30.93
2019-05-15T14:21:13.083Z,31.08
2019-05-15T14:23:18.620Z,31.30
2019-05-15T14:25:23.640Z,31.02
2019-05-15T14:27:28.938Z,31.21
2019-05-15T14:29:36.406Z,31.48
2019-05-15T14:31:42.927Z,31.71
2019-05-15T14:33:48.813Z,32.07
2019-05-15T14:35:53.430Z,32.25
2019-05-15T14:38:06.850Z,32.54
2019-05-15T14:40:11.486Z,32.46
2019-05-15T14:42:18.451Z,32.38
2019-05-15T14:44:22.110Z,32.79
2019-05-15T14:46:26.623Z,33.04
2019-05-15T14:48:31.043Z,32.60
2019-05-15T14:50:35.521Z,32.26
2019-05-15T14:52:39.921Z,31.98
2019-05-15T14:54:44.449Z,32.20
2019-05-15T14:56:48.791Z,32.46
2019-05-15T14:58:53.061Z,32.45
2019-05-15T15:01:02.736Z,32.86
2019-05-15T15:03:10.912Z,33.35
2019-05-15T15:05:15.544Z,33.25
2019-05-15T15:07:19.966Z,33.29
2019-05-15T15:09:24.421Z,33.30
2019-05-15T15:11:29.248Z,33.53
2019-05-15T15:13:33.731Z,33.66
2019-05-15T15:15:44.071Z,34.00
2019-05-15T15:17:49.589Z,34.27
2019-05-15T15:20:00.271Z,34.33
2019-05-15T15:22:04.202Z,34.49
2019-05-15T15:24:08.567Z,34.40
2019-05-15T15:26:14.373Z,34.49
2019-05-15T15:28:19.017Z,34.67
2019-05-15T15:30:23.752Z,35.18
2019-05-15T15:32:31.113Z,34.99
2019-05-15T15:34:38.840Z,35.06
2019-05-15T15:36:43.427Z,35.43
2019-05-15T15:38:48.375Z,35.66
2019-05-15T15:40:52.846Z,35.86
2019-05-15T15:42:58.067Z,35.96
2019-05-15T15:45:02.688Z,36.25
2019-05-15T15:47:08.550Z,36.34
2019-05-15T15:49:13.637Z,36.42
2019-05-15T15:51:20.967Z,36.52
2019-05-15T15:53:25.566Z,36.75
2019-05-15T15:55:34.832Z,36.73
2019-05-15T15:57:44.066Z,36.69
2019-05-15T15:59:49.097Z,37.01
2019-05-15T16:01:53.665Z,36.72
2019-05-15T16:03:57.888Z,36.71
2019-05-15T16:06:02.169Z,36.74
2019-05-15T16:08:08.383Z,36.93
2019-05-15T16:10:12.793Z,37.09
2019-05-15T16:12:18.593Z,37.09
2019-05-15T16:14:28.621Z,36.99
2019-05-15T16:16:31.904Z,37.13
2019-05-15T16:18:38.361Z,37.29
2019-05-15T16:20:42.593Z,37.46
2019-05-15T16:22:59.015Z,37.60
2019-05-15T16:25:02.724Z,37.76
2019-05-15T16:27:09.679Z,37.96
2019-05-15T16:29:18.385Z,38.25
2019-05-15T16:31:21.991Z,38.43
2019-05-15T16:39:34.155Z,38.74
2019-05-15T16:41:41.969Z,38.73
2019-05-15T16:43:48.165Z,38.95
2019-05-15T16:45:52.631Z,39.05
2019-05-15T16:47:58.753Z,38.98
2019-05-15T16:50:03.191Z,38.94
2019-05-15T16:52:09.196Z,38.94
2019-05-15T16:54:13.701Z,39.08
2019-05-15T16:56:18.972Z,39.10
2019-05-15T16:58:23.728Z,39.15
2019-05-15T17:00:29.220Z,39.34
2019-05-15T17:02:33.284Z,39.34
2019-05-15T17:04:40.448Z,39.36
2019-05-15T17:06:44.972Z,39.42
2019-05-15T17:08:49.576Z,39.49
2019-05-15T17:10:53.844Z,39.59
2019-05-15T17:12:58.539Z,39.78
2019-05-15T17:15:03.239Z,39.91
2019-05-15T17:17:07.976Z,39.87
2019-05-15T17:19:12.069Z,39.75
2019-05-15T17:21:18.789Z,39.79
2019-05-15T17:24:01.974Z,39.95
2019-05-15T17:26:36.074Z,39.89
2019-05-15T18:02:55.598Z,40.79
2019-05-15T18:05:01.790Z,40.89
2019-05-15T18:07:13.759Z,40.89
2019-05-15T18:09:28.039Z,40.92
2019-05-15T18:11:54.215Z,41.04
2019-05-15T18:14:26.606Z,41.21
2019-05-15T18:17:48.051Z,41.42
2019-05-15T18:35:32.934Z,41.74
2019-05-15T18:37:38.952Z,41.98
2019-05-15T18:39:42.259Z,42.11
2019-05-15T18:41:48.345Z,42.19
2019-05-15T18:43:51.522Z,42.30
2019-05-15T18:45:55.239Z,42.27
2019-05-15T18:47:59.029Z,42.39
2019-05-15T18:50:06.070Z,42.38
2019-05-15T18:52:08.831Z,42.33
2019-05-15T18:54:12.683Z,42.31
2019-05-15T18:56:18.521Z,42.29
2019-05-15T18:58:21.933Z,42.17
2019-05-15T19:00:25.730Z,42.13
2019-05-15T19:02:30.508Z,42.03
2019-05-15T19:04:34.235Z,41.96
2019-05-15T19:06:38.403Z,41.94
2019-05-15T19:08:42.165Z,41.98
2019-05-15T19:10:47.757Z,41.97
2019-05-15T19:12:51.561Z,42.01
2019-05-15T19:14:55.301Z,41.99
2019-05-15T19:16:59.249Z,42.06
2019-05-15T19:19:03.094Z,42.13
2019-05-15T19:21:07.996Z,42.14
2019-05-15T19:23:11.873Z,42.15
2019-05-15T19:25:17.824Z,42.19
2019-05-15T19:27:21.357Z,42.15
2019-05-15T19:29:25.084Z,42.22
2019-05-15T19:31:30.653Z,42.21
2019-05-15T19:33:38.203Z,42.37
2019-05-15T19:35:39.946Z,42.36
2019-05-15T19:37:43.661Z,42.25
2019-05-15T19:39:47.933Z,42.20
2019-05-15T19:41:51.876Z,42.27
2019-05-15T19:43:55.618Z,42.35
2019-05-15T19:45:59.810Z,42.28
2019-05-15T19:48:03.614Z,42.28
2019-05-15T19:50:08.539Z,42.29
2019-05-15T19:52:12.423Z,42.32
2019-05-15T19:54:18.239Z,42.47
2019-05-15T19:56:21.675Z,42.47
2019-05-15T19:58:25.388Z,42.42
2019-05-15T20:00:29.283Z,42.50
2019-05-15T20:02:32.997Z,42.50
2019-05-15T20:04:38.515Z,42.56
2019-05-15T20:06:42.386Z,42.57
2019-05-15T20:08:47.903Z,42.54
2019-05-15T20:10:51.717Z,42.66
2019-05-15T20:12:55.419Z,42.75
2019-05-15T20:14:59.150Z,42.85
2019-05-15T20:17:02.867Z,42.87
2019-05-15T20:19:08.606Z,42.84
2019-05-15T20:21:12.165Z,42.97
2019-05-15T20:23:18.255Z,43.06
2019-05-15T20:25:21.495Z,43.11
2019-05-15T20:27:25.341Z,43.17
2019-05-15T20:29:29.170Z,43.26
2019-05-15T20:31:32.973Z,43.33
2019-05-15T20:33:37.893Z,43.47
2019-05-15T20:35:42.717Z,43.52
2019-05-15T20:37:48.482Z,43.54
2019-05-15T20:39:52.066Z,43.32
2019-05-15T20:41:58.113Z,43.30
2019-05-15T20:44:01.398Z,43.28
2019-05-15T20:46:05.177Z,43.34
2019-05-15T20:48:09.041Z,43.54
2019-05-15T20:50:14.206Z,43.58
2019-05-15T20:52:21.461Z,43.53
2019-05-15T20:54:23.376Z,43.65
2019-05-15T20:56:28.221Z,43.88
2019-05-15T20:58:32.080Z,44.02
2019-05-15T21:00:40.729Z,44.09
2019-05-15T21:02:41.703Z,44.20
2019-05-15T21:04:45.434Z,44.35
2019-05-15T21:06:49.217Z,44.45
2019-05-15T21:08:52.995Z,44.55
2019-05-15T21:10:58.830Z,44.65
2019-05-15T21:13:02.159Z,44.72
2019-05-15T21:15:08.605Z,44.83
2019-05-15T21:17:12.058Z,44.83
2019-05-15T21:19:15.776Z,44.92
2019-05-15T21:21:19.504Z,44.91
2019-05-15T21:23:23.221Z,44.78
2019-05-15T21:25:28.544Z,44.73
2019-05-15T21:27:33.500Z,44.79
2019-05-15T21:29:38.151Z,44.72
2019-05-15T21:31:43.327Z,44.81
2019-05-15T21:33:48.193Z,44.92
2019-05-15T21:35:52.163Z,44.94
2019-05-15T21:37:57.742Z,45.16
2019-05-15T21:40:01.589Z,45.28
2019-05-15T21:42:05.379Z,45.39
2019-05-15T21:44:09.124Z,45.71
2019-05-15T21:46:13.006Z,46.16
2019-05-15T21:48:18.399Z,46.84
2019-05-15T21:50:22.353Z,47.55
2019-05-15T21:52:26.167Z,48.26
2019-05-15T21:54:29.975Z,48.67
2019-05-15T21:56:33.780Z,49.22
2019-05-15T21:58:37.838Z,48.92
2019-05-15T22:00:44.810Z,49.13
2019-05-15T22:02:49.321Z,49.31
2019-05-15T22:04:56.123Z,49.39
2019-05-15T22:06:59.775Z,49.69
2019-05-15T22:09:12.537Z,49.74
2019-05-15T22:11:18.812Z,49.74
2019-05-15T22:13:21.967Z,49.72
2019-05-15T22:15:28.393Z,49.68
2019-05-15T22:17:31.435Z,49.76
2019-05-15T22:19:35.150Z,49.85
2019-05-15T22:21:40.687Z,49.57
2019-05-15T22:23:44.701Z,49.46
2019-05-15T22:25:51.308Z,49.36
2019-05-15T22:27:54.071Z,49.63
2019-05-15T22:29:58.779Z,49.50
2019-05-15T22:32:05.107Z,49.44
2019-05-15T22:34:09.942Z,49.49
2019-05-15T22:36:14.853Z,49.54
2019-05-15T22:38:18.609Z,49.72
2019-05-15T22:40:22.527Z,49.68
2019-05-15T22:42:29.550Z,49.71
2019-05-15T22:44:31.847Z,49.73
2019-05-15T22:46:38.173Z,49.90
2019-05-15T22:48:41.224Z,49.75
2019-05-15T22:50:47.706Z,49.77
2019-05-15T22:52:50.764Z,49.79
2019-05-15T22:54:54.554Z,49.85
2019-05-15T22:56:58.372Z,49.90
2019-05-15T22:59:02.238Z,49.94
2019-05-15T23:01:08.882Z,50.00
2019-05-15T23:03:11.526Z,50.03
2019-05-15T23:05:25.134Z,50.20
2019-05-15T23:07:21.962Z,50.26
2019-05-15T23:09:25.695Z,50.21
2019-05-15T23:11:29.998Z,50.23
2019-05-15T23:13:33.701Z,50.27
2019-05-15T23:15:38.541Z,50.19
2019-05-15T23:17:42.334Z,50.23
2019-05-15T23:19:48.501Z,50.28
2019-05-15T23:21:51.916Z,50.44
2019-05-15T23:23:55.682Z,50.85
2019-05-15T23:25:59.499Z,51.29
2019-05-15T23:28:03.259Z,51.60
2019-05-15T23:30:08.975Z,51.75
2019-05-15T23:32:12.958Z,51.89
2019-05-15T23:34:18.687Z,52.06
2019-05-15T23:36:22.306Z,52.28
2019-05-15T23:38:27.980Z,52.41
2019-05-15T23:40:31.928Z,52.54
2019-05-15T23:42:38.626Z,52.79
2019-05-15T23:44:41.194Z,53.01
2019-05-15T23:46:45.077Z,53.15
2019-05-15T23:48:54.639Z,53.41
2019-05-15T23:50:59.124Z,53.53
2019-05-15T23:53:03.033Z,53.55
2019-05-15T23:55:08.814Z,53.60
2019-05-15T23:57:12.532Z,53.53
2019-05-15T23:59:18.641Z,53.32
